Time;durP1;ratioP1;P1;durP2;ratioP2;P2;SDS_P1;SDS_P2;PMS_P1;PMS_P2;Temp;Humidity;BMP_temperature;BMP_pressure;BME280_temperature;BME280_humidity;BME280_pressure;Samples;Min_cycle;Max_cycle;Signal;HPM_P1;HPM_P2
2022/07/26 00:06:49;;;;;;;5.40;3.10;;;;;;;18.37;54.02;98800.58;431659;1270;141152;-69
2022/07/26 00:16:56;;;;;;;5.00;3.50;;;;;;;18.30;54.19;98795.11;431284;1270;141879;-69
2022/07/26 00:27:02;;;;;;;6.10;3.70;;;;;;;18.24;54.62;98772.77;431952;1270;140922;-68
2022/07/26 00:37:07;;;;;;;3.30;3.00;;;;;;;18.17;55.00;98757.70;432455;1270;141609;-67
2022/07/26 00:47:14;;;;;;;3.30;3.10;;;;;;;18.16;55.27;98767.27;431140;1270;141304;-66
2022/07/26 00:57:20;;;;;;;4.90;3.60;;;;;;;18.13;55.53;98770.39;431868;1271;184988;-67
2022/07/26 01:07:27;;;;;;;3.30;3.00;;;;;;;18.14;55.74;98761.09;430970;1271;142803;-68
2022/07/26 01:17:33;;;;;;;6.20;3.60;;;;;;;18.10;55.88;98764.52;431487;1273;142079;-67
2022/07/26 01:27:43;;;;;;;3.90;3.30;;;;;;;18.09;56.35;98752.13;431087;1272;141190;-69
2022/07/26 01:37:48;;;;;;;7.30;3.80;;;;;;;18.02;56.40;98737.04;430525;1270;141787;-69
2022/07/26 01:47:54;;;;;;;3.50;3.20;;;;;;;17.93;56.54;98734.82;430996;1273;141478;-68
2022/07/26 01:58:00;;;;;;;3.90;3.30;;;;;;;17.83;56.83;98714.84;431535;1271;141616;-68
2022/07/26 02:08:06;;;;;;;4.80;3.60;;;;;;;17.76;57.04;98699.23;430643;1271;141564;-67
2022/07/26 02:18:14;;;;;;;5.00;4.10;;;;;;;17.73;57.40;98696.30;431780;1270;142114;-67
2022/07/26 02:28:21;;;;;;;12.70;7.80;;;;;;;17.66;57.53;98693.87;431696;1270;142352;-67
2022/07/26 02:38:27;;;;;;;9.90;6.90;;;;;;;17.66;57.85;98693.28;431395;1270;143188;-68
2022/07/26 02:48:33;;;;;;;5.10;4.60;;;;;;;17.66;57.89;98687.60;432071;1270;143601;-69
2022/07/26 02:58:39;;;;;;;7.70;4.20;;;;;;;17.67;58.15;98672.50;431111;1271;142467;-67
2022/07/26 03:08:45;;;;;;;5.40;4.60;;;;;;;17.69;58.28;98658.46;432056;1270;142325;-67
2022/07/26 03:18:51;;;;;;;4.30;3.90;;;;;;;17.73;58.33;98656.56;431337;1271;141405;-68
2022/07/26 03:28:57;;;;;;;5.30;4.80;;;;;;;17.93;58.20;98640.43;430310;1271;141632;-67
2022/07/26 03:39:04;;;;;;;4.10;3.70;;;;;;;18.03;58.11;98625.68;431380;1271;142264;-67
2022/07/26 03:49:10;;;;;;;5.00;4.50;;;;;;;18.11;57.90;98619.73;432446;1271;143742;-67
2022/07/26 03:59:22;;;;;;;5.40;4.80;;;;;;;18.27;57.92;98623.32;430787;1271;142898;-67
2022/07/26 04:09:28;;;;;;;4.90;3.90;;;;;;;18.83;57.33;98631.69;430911;1273;141717;-67
2022/07/26 04:19:34;;;;;;;3.90;3.60;;;;;;;20.27;56.09;98625.30;431210;1271;142835;-68
2022/07/26 04:29:44;;;;;;;5.10;3.30;;;;;;;23.27;51.34;98622.48;431537;1270;143150;-68
2022/07/26 04:39:50;;;;;;;4.60;3.50;;;;;;;23.97;48.85;98632.52;432444;1270;140587;-68
2022/07/26 04:49:59;;;;;;;3.70;3.40;;;;;;;22.72;48.97;98624.66;430968;1270;141045;-66
2022/07/26 05:00:09;;;;;;;5.10;3.50;;;;;;;21.72;49.98;98651.39;431365;1270;142219;-67
2022/07/26 05:10:32;;;;;;;5.10;3.90;;;;;;;21.43;50.93;98670.74;431751;1270;140994;-67
2022/07/26 05:20:39;;;;;;;5.80;3.50;;;;;;;21.44;51.22;98675.64;431511;1271;144496;-68
2022/07/26 05:30:45;;;;;;;8.60;4.10;;;;;;;21.52;51.06;98683.27;431469;1271;142616;-69
2022/07/26 05:40:51;;;;;;;4.80;3.70;;;;;;;21.75;50.96;98690.22;430851;1271;141289;-68
2022/07/26 05:50:58;;;;;;;6.20;3.60;;;;;;;22.45;50.39;98709.55;443421;1270;144973;-66
2022/07/26 06:01:05;;;;;;;7.80;3.40;;;;;;;23.19;49.66;98724.09;434276;1270;141457;-65
2022/07/26 06:11:10;;;;;;;5.00;4.40;;;;;;;25.68;47.12;98704.66;431356;1271;141888;-68
2022/07/26 06:21:16;;;;;;;10.60;4.40;;;;;;;26.89;44.44;98689.65;431542;1273;140522;-68
2022/07/26 06:31:23;;;;;;;4.70;3.80;;;;;;;26.74;43.15;98674.48;431915;1272;141645;-68
2022/07/26 06:41:29;;;;;;;7.00;4.10;;;;;;;26.93;42.49;98671.98;431682;1271;141164;-68
2022/07/26 06:51:35;;;;;;;4.80;3.20;;;;;;;29.16;40.63;98706.30;431143;1271;140781;-66
2022/07/26 07:01:41;;;;;;;3.60;2.80;;;;;;;30.86;36.22;98704.41;430859;1271;141263;-66
2022/07/26 07:12:05;;;;;;;5.10;3.20;;;;;;;28.28;37.79;98733.83;431130;1271;141387;-66
2022/07/26 07:22:15;;;;;;;12.70;4.10;;;;;;;26.64;40.61;98770.48;432354;1273;140838;-68
2022/07/26 07:32:20;;;;;;;9.10;3.30;;;;;;;27.17;41.31;98781.41;430862;1271;141498;-67
2022/07/26 07:42:29;;;;;;;3.60;3.00;;;;;;;26.59;41.78;98782.79;431795;1271;141873;-68
2022/07/26 07:52:35;;;;;;;6.80;3.70;;;;;;;25.86;42.13;98810.47;431284;1271;142300;-67
2022/07/26 08:02:40;;;;;;;4.70;4.30;;;;;;;25.00;43.19;98831.58;431393;1271;143621;-67
2022/07/26 08:12:46;;;;;;;6.50;4.20;;;;;;;23.79;45.31;98836.17;431380;1271;141410;-68
2022/07/26 08:22:56;;;;;;;4.60;4.10;;;;;;;22.78;47.84;98850.04;430841;1271;140320;-67
2022/07/26 08:33:02;;;;;;;7.00;4.70;;;;;;;22.17;49.53;98847.18;432582;1271;145971;-68
2022/07/26 08:43:09;;;;;;;9.60;5.30;;;;;;;22.05;50.47;98865.52;431914;1271;142539;-68
2022/07/26 08:53:16;;;;;;;10.70;6.80;;;;;;;21.77;52.52;98871.62;430850;1271;143495;-68
2022/07/26 09:03:26;;;;;;;10.00;7.80;;;;;;;21.70;54.64;98915.69;432075;1271;142617;-67
2022/07/26 09:13:51;;;;;;;11.80;6.40;;;;;;;21.99;55.30;98919.19;430869;1272;142058;-68
2022/07/26 09:23:58;;;;;;;13.60;7.00;;;;;;;22.11;55.62;98929.52;432460;1270;142476;-67
2022/07/26 09:34:05;;;;;;;7.90;6.90;;;;;;;22.08;56.42;98942.15;432464;1270;142361;-68
2022/07/26 09:44:21;;;;;;;;;;;;;;;21.54;58.91;98965.77;431816;1270;141865;-68
2022/07/26 09:54:35;;;;;;;10.30;9.30;;;;;;;20.91;61.99;98984.04;431703;1271;130597;-68
2022/07/26 10:04:43;;;;;;;9.70;8.80;;;;;;;20.29;64.44;99003.66;431565;1270;142648;-68
2022/07/26 10:14:50;;;;;;;9.70;8.90;;;;;;;19.91;66.89;98991.30;432102;1270;142538;-69
2022/07/26 10:24:58;;;;;;;11.60;10.20;;;;;;;19.77;68.66;98997.44;432148;1270;144542;-67
2022/07/26 10:35:37;;;;;;;9.40;8.30;;;;;;;19.47;70.18;99014.54;431390;1270;142390;-66
2022/07/26 10:45:44;;;;;;;8.90;8.00;;;;;;;19.15;71.28;99030.28;431255;1271;142594;-70
2022/07/26 10:55:56;;;;;;;11.70;9.70;;;;;;;19.01;71.86;99046.32;431457;1271;143724;-67
2022/07/26 11:06:14;;;;;;;9.70;8.80;;;;;;;19.11;72.45;99052.90;432215;1270;142580;-67
2022/07/26 11:16:22;;;;;;;9.50;8.60;;;;;;;19.17;73.08;99055.64;432263;1270;144501;-67
2022/07/26 11:26:33;;;;;;;8.50;7.70;;;;;;;19.35;73.07;99080.78;430599;1270;538940;-67
2022/07/26 11:36:42;;;;;;;6.90;6.40;;;;;;;19.62;72.67;99071.66;432155;1270;141583;-67
2022/07/26 11:46:49;;;;;;;6.40;5.80;;;;;;;19.81;72.46;99081.90;431178;1270;142357;-68
2022/07/26 11:57:00;;;;;;;6.10;5.50;;;;;;;20.36;71.42;99087.84;431150;1271;146044;-66
2022/07/26 12:07:14;;;;;;;6.90;6.30;;;;;;;20.71;70.13;99089.97;431761;1270;143752;-68
2022/07/26 12:17:20;;;;;;;6.30;5.70;;;;;;;20.47;70.26;99078.45;431930;1270;142436;-67
2022/07/26 12:27:29;;;;;;;5.50;5.10;;;;;;;20.21;69.99;99060.36;431657;1271;143569;-66
2022/07/26 12:37:38;;;;;;;5.60;4.30;;;;;;;19.97;69.88;99049.60;431022;1270;142105;-68
2022/07/26 12:47:48;;;;;;;5.80;3.90;;;;;;;20.05;69.92;99058.83;431898;1270;140792;-67
2022/07/26 12:57:54;;;;;;;4.80;4.40;;;;;;;20.06;69.03;99076.28;432266;1270;143181;-67
2022/07/26 13:08:02;;;;;;;4.80;3.40;;;;;;;20.15;68.71;99077.45;431384;1270;142309;-71
2022/07/26 13:18:09;;;;;;;7.70;3.40;;;;;;;20.18;68.29;99075.37;431593;1271;141666;-68
2022/07/26 13:28:15;;;;;;;4.80;3.30;;;;;;;20.54;67.95;99077.30;431652;1270;141567;-68
2022/07/26 13:38:21;;;;;;;11.00;3.70;;;;;;;21.12;66.52;99074.05;431174;1270;142972;-67
2022/07/26 13:48:27;;;;;;;5.60;3.50;;;;;;;21.66;65.08;99084.11;431794;1270;142000;-69
2022/07/26 13:58:33;;;;;;;9.30;3.90;;;;;;;21.87;64.51;99080.06;431156;1270;161839;-68
2022/07/26 14:08:39;;;;;;;9.20;4.50;;;;;;;22.17;64.40;99086.89;431971;1270;142521;-66
2022/07/26 14:18:45;;;;;;;10.10;4.00;;;;;;;22.64;63.45;99091.79;431776;1270;197780;-65
2022/07/26 14:28:51;;;;;;;7.20;4.30;;;;;;;22.75;63.02;99096.43;431189;1270;143338;-68
2022/07/26 14:38:57;;;;;;;7.40;5.00;;;;;;;22.55;62.96;99099.84;431814;1270;142864;-68
2022/07/26 14:49:03;;;;;;;12.60;4.80;;;;;;;22.48;63.31;99102.77;431684;1270;143183;-68
2022/07/26 14:59:09;;;;;;;10.40;5.10;;;;;;;22.18;63.30;99102.38;435158;1270;143509;-67
2022/07/26 15:09:15;;;;;;;7.20;3.90;;;;;;;21.88;63.58;99109.27;431880;1270;142573;-67
2022/07/26 15:19:21;;;;;;;12.20;3.50;;;;;;;21.53;64.07;99108.30;431068;1270;142194;-65
2022/07/26 15:29:30;;;;;;;7.90;4.60;;;;;;;21.33;64.74;99107.05;430869;1270;142805;-63
2022/07/26 15:39:36;;;;;;;9.70;4.20;;;;;;;21.29;65.14;99105.02;432588;1270;141804;-66
2022/07/26 15:49:42;;;;;;;9.20;3.80;;;;;;;21.30;65.31;99097.34;431374;1270;142384;-66
2022/07/26 15:59:48;;;;;;;10.50;5.20;;;;;;;21.19;65.40;99091.30;431988;1270;142190;-64
2022/07/26 16:09:53;;;;;;;6.70;4.50;;;;;;;21.02;65.67;99085.22;431460;1270;147755;-66
2022/07/26 16:19:59;;;;;;;13.60;5.40;;;;;;;20.95;66.20;99077.59;431130;1270;142453;-66
2022/07/26 16:30:06;;;;;;;7.90;4.80;;;;;;;20.98;66.18;99082.85;430814;1271;142172;-67
2022/07/26 16:40:13;;;;;;;11.00;5.80;;;;;;;20.97;66.35;99086.79;432053;1270;142704;-66
2022/07/26 16:50:19;;;;;;;8.20;4.80;;;;;;;20.91;66.39;99085.77;430577;1271;142930;-64
2022/07/26 17:00:32;;;;;;;7.10;4.10;;;;;;;20.77;66.54;99081.49;431336;1271;142807;-65
2022/07/26 17:10:38;;;;;;;10.10;4.40;;;;;;;21.07;66.53;99081.57;430882;1270;143397;-67
2022/07/26 17:20:44;;;;;;;8.60;4.70;;;;;;;21.67;65.81;99080.67;432028;1270;142338;-68
2022/07/26 17:30:50;;;;;;;8.70;4.50;;;;;;;21.46;65.15;99087.08;431790;1270;141603;-66
2022/07/26 17:40:56;;;;;;;13.10;4.70;;;;;;;21.38;65.35;99088.35;430758;1270;142723;-66
2022/07/26 17:51:03;;;;;;;11.30;3.50;;;;;;;21.28;64.78;99085.03;431249;1270;141713;-67
2022/07/26 18:01:09;;;;;;;8.20;4.70;;;;;;;21.08;64.50;99088.57;431769;1270;142243;-66
2022/07/26 18:11:15;;;;;;;5.90;3.80;;;;;;;20.73;64.69;99089.38;431067;1270;142969;-66
2022/07/26 18:21:21;;;;;;;5.10;3.60;;;;;;;20.28;65.32;99093.70;431705;1270;142926;-67
2022/07/26 18:31:27;;;;;;;4.00;3.40;;;;;;;19.87;66.31;99091.88;431345;1270;145259;-67
2022/07/26 18:41:33;;;;;;;9.00;3.70;;;;;;;19.41;67.13;99102.15;430716;1270;142830;-66
2022/07/26 18:51:40;;;;;;;10.80;4.20;;;;;;;18.94;68.33;99102.71;431731;1270;155838;-69
2022/07/26 19:01:46;;;;;;;14.50;5.10;;;;;;;18.53;69.25;99099.60;431232;1270;148240;-66
2022/07/26 19:11:52;;;;;;;13.40;6.20;;;;;;;18.16;70.01;99108.55;431039;1270;142178;-57
2022/07/26 19:21:57;;;;;;;18.10;11.80;;;;;;;17.87;70.96;99113.26;431501;1271;142966;-61
2022/07/26 19:32:04;;;;;;;20.10;13.20;;;;;;;17.60;71.79;99113.69;430891;1271;147862;-61
2022/07/26 19:42:10;;;;;;;19.90;8.70;;;;;;;17.35;72.40;99111.05;431825;1270;143232;-62
2022/07/26 19:52:16;;;;;;;9.70;7.20;;;;;;;17.07;72.88;99107.59;431455;1271;142609;-61
2022/07/26 20:02:21;;;;;;;12.40;7.00;;;;;;;16.79;73.56;99102.66;430997;1270;183848;-61
2022/07/26 20:12:28;;;;;;;10.10;5.90;;;;;;;16.55;73.85;99104.86;431581;1270;142731;-62
2022/07/26 20:22:34;;;;;;;6.40;5.80;;;;;;;16.30;74.33;99106.70;430701;1271;164526;-61
2022/07/26 20:32:39;;;;;;;10.80;7.30;;;;;;;16.09;74.62;99103.56;431630;1270;140869;-65
2022/07/26 20:42:45;;;;;;;8.80;6.90;;;;;;;15.87;75.24;99112.95;431821;1270;143004;-58
2022/07/26 20:52:55;;;;;;;9.10;6.80;;;;;;;15.72;75.86;99116.48;431488;1270;161242;-61
2022/07/26 21:03:01;;;;;;;10.00;7.10;;;;;;;15.75;76.27;99121.80;432113;1268;141708;-60
2022/07/26 21:13:07;;;;;;;11.10;5.90;;;;;;;16.08;75.93;99128.31;431944;1270;195108;-61
2022/07/26 21:23:14;;;;;;;8.10;5.90;;;;;;;16.13;75.60;99131.79;431384;1270;141732;-57
2022/07/26 21:33:25;;;;;;;8.90;5.40;;;;;;;16.16;75.34;99140.50;432103;1270;142398;-61
2022/07/26 21:43:31;;;;;;;5.00;4.50;;;;;;;16.14;75.34;99145.24;432181;1270;142190;-59
2022/07/26 21:53:37;;;;;;;5.70;5.20;;;;;;;16.21;75.10;99153.61;432191;1270;142881;-60
2022/07/26 22:03:43;;;;;;;5.30;4.00;;;;;;;16.34;74.90;99162.45;432471;1270;141269;-61
2022/07/26 22:13:49;;;;;;;6.10;4.40;;;;;;;16.54;74.62;99162.46;431649;1270;142778;-61
2022/07/26 22:23:55;;;;;;;5.60;4.10;;;;;;;16.95;73.77;99161.63;431646;1270;141915;-61
2022/07/26 22:34:01;;;;;;;5.20;4.00;;;;;;;17.04;73.06;99171.00;434090;1271;142183;-59
2022/07/26 22:44:07;;;;;;;5.30;3.60;;;;;;;16.94;73.11;99179.53;431606;1270;142940;-60
2022/07/26 22:54:13;;;;;;;4.10;3.70;;;;;;;16.96;73.20;99186.75;432023;1270;142282;-60
2022/07/26 23:04:19;;;;;;;4.50;2.60;;;;;;;17.02;73.13;99187.10;431694;1269;142123;-60
2022/07/26 23:14:26;;;;;;;4.90;2.80;;;;;;;17.44;72.69;99199.44;431224;1270;141973;-61
2022/07/26 23:24:32;;;;;;;5.20;2.90;;;;;;;17.69;71.82;99210.58;431449;1270;331292;-59
2022/07/26 23:34:38;;;;;;;4.90;2.20;;;;;;;17.36;71.97;99213.00;430685;1270;142448;-61
2022/07/26 23:44:44;;;;;;;2.70;2.50;;;;;;;17.15;72.18;99221.73;431718;1270;146925;-63
2022/07/26 23:54:50;;;;;;;3.00;2.10;;;;;;;17.01;72.51;99227.49;431309;1270;141706;-60
